Time;durP1;ratioP1;P1;durP2;ratioP2;P2;SDS_P1;SDS_P2;PMS_P1;PMS_P2;Temp;Humidity;BMP_temperature;BMP_pressure;BME280_temperature;BME280_humidity;BME280_pressure;Samples;Min_cycle;Max_cycle;Signal;HPM_P1;HPM_P2
2021/12/06 00:02:20;;;;;;;61.30;39.48;;;;;;;1.91;82.69;95513.21;1795934;79;20964;-83
2021/12/06 00:04:47;;;;;;;53.60;36.77;;;;;;;1.91;82.65;95516.58;1816013;78;21264;-83
2021/12/06 00:07:17;;;;;;;59.67;37.35;;;;;;;1.95;82.78;95514.06;1815464;79;20999;-83
2021/12/06 00:09:43;;;;;;;57.60;37.50;;;;;;;1.98;82.63;95521.45;1811118;78;20976;-83
2021/12/06 00:12:10;;;;;;;60.88;40.03;;;;;;;2.02;82.75;95517.63;1820885;79;20964;-83
2021/12/06 00:14:38;;;;;;;60.33;39.73;;;;;;;2.00;82.62;95513.61;1811745;78;20925;-83
2021/12/06 00:17:08;;;;;;;51.98;35.92;;;;;;;1.97;82.58;95513.44;1815588;79;20944;-83
2021/12/06 00:19:34;;;;;;;56.33;35.33;;;;;;;1.94;82.65;95516.27;1820100;78;21354;-83
2021/12/06 00:22:03;;;;;;;52.00;34.83;;;;;;;1.96;82.66;95509.75;1816977;78;20988;-83
2021/12/06 00:24:31;;;;;;;54.80;36.03;;;;;;;1.94;82.58;95507.78;1811704;79;21082;-83
2021/12/06 00:26:56;;;;;;;50.35;35.13;;;;;;;1.80;82.65;95483.54;1793133;78;21000;-83
2021/12/06 00:29:22;;;;;;;53.28;33.88;;;;;;;1.98;82.67;95503.99;1817001;79;20947;-83
2021/12/06 00:31:48;;;;;;;46.18;32.28;;;;;;;1.95;82.70;95508.94;1811550;79;21013;-83
2021/12/06 00:34:17;;;;;;;50.90;35.03;;;;;;;1.95;82.82;95511.50;1819031;79;20964;-83
2021/12/06 00:36:52;;;;;;;48.75;32.17;;;;;;;1.94;82.83;95512.91;1814192;78;20984;-83
2021/12/06 00:39:12;;;;;;;43.10;30.97;;;;;;;1.90;82.86;95511.61;1820073;78;20988;-83
2021/12/06 00:41:40;;;;;;;45.08;28.65;;;;;;;1.86;82.80;95506.46;1816869;78;21021;-83
2021/12/06 00:44:07;;;;;;;41.75;28.95;;;;;;;1.86;82.80;95506.46;1811533;79;21060;-83
2021/12/06 00:46:35;;;;;;;43.02;29.35;;;;;;;1.86;82.79;95500.86;1817498;79;20964;-83
2021/12/06 00:49:01;;;;;;;41.68;28.47;;;;;;;1.88;82.77;95506.63;1817172;78;21085;-83
2021/12/06 00:51:26;;;;;;;43.65;28.57;;;;;;;1.90;82.88;95507.28;1815953;78;21121;-83
2021/12/06 00:53:52;;;;;;;43.63;29.18;;;;;;;1.93;83.10;95510.02;1810863;79;21048;-83
2021/12/06 00:56:18;;;;;;;42.53;27.15;;;;;;;1.97;83.15;95512.63;1813914;76;21026;-83
2021/12/06 00:58:44;;;;;;;41.48;27.93;;;;;;;1.95;83.02;95520.92;1818698;79;21074;-83
2021/12/06 01:01:10;;;;;;;41.37;29.00;;;;;;;1.94;82.98;95530.84;1812084;78;20961;-83
2021/12/06 01:03:37;;;;;;;40.05;28.23;;;;;;;1.95;82.92;95544.81;1819567;79;21011;-83
2021/12/06 01:06:05;;;;;;;40.20;29.75;;;;;;;1.94;82.95;95548.78;1816256;79;20985;-83
2021/12/06 01:08:31;;;;;;;42.90;29.72;;;;;;;1.99;83.12;95551.23;1813396;78;21010;-83
2021/12/06 01:10:57;;;;;;;40.45;26.93;;;;;;;2.00;83.16;95550.28;1812125;79;20941;-83
2021/12/06 01:13:24;;;;;;;43.20;29.23;;;;;;;1.99;83.11;95551.72;1819975;79;21291;-83
2021/12/06 01:15:50;;;;;;;44.35;29.27;;;;;;;1.96;83.07;95549.45;1819901;78;21034;-83
2021/12/06 01:18:18;;;;;;;42.13;28.60;;;;;;;1.93;82.96;95537.72;1814070;78;20948;-83
2021/12/06 01:20:52;;;;;;;43.15;29.25;;;;;;;1.87;82.80;95514.47;1813510;79;21011;-83
2021/12/06 01:23:15;;;;;;;42.35;29.05;;;;;;;1.76;82.78;95509.09;1816593;78;20973;-83
2021/12/06 01:31:33;;;;;;;45.48;30.32;;;;;;;1.71;83.50;95486.50;1816859;79;21023;-83
2021/12/06 01:39:12;;;;;;;28.95;20.37;;;;;;;1.69;83.68;95514.02;1818281;79;21028;-83
2021/12/06 01:41:37;;;;;;;23.52;16.50;;;;;;;1.71;83.71;95515.16;1813321;79;20961;-83
2021/12/06 01:44:17;;;;;;;27.37;19.80;;;;;;;1.76;83.73;95523.19;1812623;79;20995;-83
2021/12/06 01:46:47;;;;;;;24.80;18.20;;;;;;;1.78;83.70;95516.16;1816419;79;20968;-83
2021/12/06 01:49:12;;;;;;;33.73;21.93;;;;;;;1.80;83.78;95502.27;1812400;79;21011;-83
2021/12/06 01:51:38;;;;;;;29.98;21.12;;;;;;;1.83;83.81;95505.48;1811155;79;21016;-83
2021/12/06 01:54:05;;;;;;;29.92;20.77;;;;;;;1.83;83.83;95511.89;1813477;79;21419;-83
2021/12/06 01:56:31;;;;;;;27.00;18.77;;;;;;;1.84;83.96;95510.94;1812034;79;21054;-83
2021/12/06 01:58:57;;;;;;;27.58;18.27;;;;;;;1.84;83.88;95510.94;1814200;78;21004;-82
2021/12/06 02:01:23;;;;;;;25.40;17.75;;;;;;;1.86;83.83;95510.30;1802030;79;21023;-83
2021/12/06 02:03:48;;;;;;;25.75;18.95;;;;;;;1.86;83.77;95512.87;1779982;80;21008;-83
2021/12/06 02:06:14;;;;;;;25.12;19.87;;;;;;;1.87;83.76;95510.16;1773139;77;20979;-83
2021/12/06 02:08:40;;;;;;;27.82;19.17;;;;;;;1.86;83.78;95511.11;1777880;78;21031;-82
2021/12/06 02:11:07;;;;;;;22.22;15.90;;;;;;;1.87;83.88;95515.75;1774445;80;20966;-83
2021/12/06 02:13:43;;;;;;;25.35;16.32;;;;;;;1.85;83.97;95518.94;1772264;80;21080;-83
2021/12/06 02:16:03;;;;;;;21.33;15.65;;;;;;;1.82;84.04;95519.25;1771348;80;21002;-83
2021/12/06 02:18:46;;;;;;;23.18;15.43;;;;;;;1.81;84.11;95519.72;1777754;80;21038;-83
2021/12/06 02:21:31;;;;;;;24.67;15.80;;;;;;;1.82;84.14;95514.92;1778117;81;21040;-83
2021/12/06 02:23:57;;;;;;;22.77;14.83;;;;;;;1.83;84.13;95508.84;1778351;80;20968;-83
2021/12/06 02:26:24;;;;;;;21.82;15.35;;;;;;;1.85;84.14;95518.94;1778236;81;21052;-83
2021/12/06 02:28:50;;;;;;;20.90;15.15;;;;;;;1.86;84.21;95529.03;1779272;80;21002;-83
2021/12/06 02:31:17;;;;;;;18.62;13.88;;;;;;;1.85;84.29;95528.71;1778408;79;21068;-83
2021/12/06 02:33:45;;;;;;;18.20;13.18;;;;;;;1.86;84.44;95530.80;1778595;80;21060;-83
2021/12/06 02:36:11;;;;;;;15.75;11.65;;;;;;;1.86;84.54;95533.36;1778736;80;20999;-83
2021/12/06 02:38:37;;;;;;;19.55;13.00;;;;;;;1.87;84.61;95537.53;1777131;80;21006;-83
2021/12/06 02:41:04;;;;;;;19.52;13.43;;;;;;;1.87;84.77;95538.80;1775108;80;20941;-82
2021/12/06 02:43:30;;;;;;;20.12;13.00;;;;;;;1.91;84.75;95547.80;1777926;80;21063;-83
2021/12/06 02:45:56;;;;;;;29.75;20.45;;;;;;;1.93;84.79;95551.81;1778259;81;21094;-83
2021/12/06 02:48:22;;;;;;;45.50;31.20;;;;;;;1.96;84.79;95554.11;1771128;78;20951;-82
2021/12/06 02:50:53;;;;;;;62.13;37.75;;;;;;;1.96;84.75;95555.86;1780296;80;20956;-82
2021/12/06 02:53:20;;;;;;;57.33;35.52;;;;;;;1.92;84.71;95551.48;1780200;81;21031;-82
2021/12/06 02:55:52;;;;;;;57.08;37.05;;;;;;;1.85;84.71;95549.69;1779900;81;21016;-82
2021/12/06 02:58:21;;;;;;;54.98;34.35;;;;;;;1.78;84.67;95548.17;1778354;81;21008;-82
2021/12/06 03:00:49;;;;;;;48.95;32.95;;;;;;;1.76;84.76;95548.32;1775660;79;21008;-82
2021/12/06 03:03:16;;;;;;;51.25;35.03;;;;;;;1.77;84.82;95549.92;1777814;80;21050;-82
2021/12/06 03:05:43;;;;;;;43.10;30.23;;;;;;;1.80;84.84;95544.53;1778019;80;20982;-82
2021/12/06 03:08:09;;;;;;;45.90;30.77;;;;;;;1.83;84.82;95542.63;1779033;80;21023;-82
2021/12/06 03:10:36;;;;;;;47.00;30.10;;;;;;;1.80;84.73;95542.45;1773910;80;20978;-82
2021/12/06 03:13:02;;;;;;;46.05;30.92;;;;;;;1.77;84.75;95540.16;1807916;79;21041;-82
2021/12/06 03:15:27;;;;;;;46.80;30.68;;;;;;;1.76;84.73;95539.83;1800632;79;21023;-82
2021/12/06 03:17:54;;;;;;;42.40;28.12;;;;;;;1.74;84.65;95534.86;1812899;79;21025;-82
2021/12/06 03:20:20;;;;;;;43.55;29.10;;;;;;;1.74;84.54;95532.30;1797417;79;21053;-82
2021/12/06 03:22:45;;;;;;;41.28;28.35;;;;;;;1.76;84.75;95530.39;1804643;79;21042;-82
2021/12/06 03:25:13;;;;;;;45.12;28.80;;;;;;;1.81;84.66;95529.97;1782871;79;20977;-82
2021/12/06 03:27:39;;;;;;;43.58;28.90;;;;;;;1.81;84.61;95535.09;1809000;79;21005;-83
2021/12/06 03:30:07;;;;;;;47.80;30.15;;;;;;;1.76;84.49;95531.67;1814741;79;20976;-83
2021/12/06 03:32:33;;;;;;;53.10;31.57;;;;;;;1.73;84.55;95536.30;1747863;82;21028;-83
2021/12/06 03:34:59;;;;;;;58.00;34.05;;;;;;;1.72;84.65;95530.84;1772621;81;20986;-83
2021/12/06 03:37:25;;;;;;;55.60;33.25;;;;;;;1.70;84.44;95536.12;1772676;81;20983;-82
2021/12/06 03:39:50;;;;;;;55.67;33.35;;;;;;;1.71;84.46;95541.56;1765909;81;21052;-82
2021/12/06 03:42:18;;;;;;;55.85;33.98;;;;;;;1.70;84.40;95539.95;1766163;81;21047;-83
2021/12/06 03:44:44;;;;;;;54.33;33.33;;;;;;;1.71;84.50;95547.16;1763570;81;20982;-82
2021/12/06 03:47:17;;;;;;;55.55;33.65;;;;;;;1.73;84.54;95547.34;1764911;81;21037;-82
2021/12/06 03:49:43;;;;;;;66.35;38.90;;;;;;;1.72;84.50;95545.73;1763844;81;20974;-82
2021/12/06 03:52:10;;;;;;;61.13;37.30;;;;;;;1.68;84.50;95540.58;1771563;81;21017;-82
2021/12/06 03:54:36;;;;;;;61.77;37.03;;;;;;;1.65;84.55;95547.28;1766955;81;21380;-82
2021/12/06 03:57:03;;;;;;;58.75;35.03;;;;;;;1.62;84.57;95543.71;1765103;81;20998;-82
2021/12/06 03:59:29;;;;;;;58.08;35.63;;;;;;;1.63;84.59;95538.95;1768287;81;21034;-82
2021/12/06 04:01:55;;;;;;;62.27;36.50;;;;;;;1.65;84.53;95538.33;1783167;80;21010;-82
2021/12/06 04:04:21;;;;;;;63.00;38.98;;;;;;;1.65;84.46;95538.80;1799384;80;21053;-82
2021/12/06 04:06:47;;;;;;;61.60;37.90;;;;;;;1.62;84.60;95541.16;1799447;79;21043;-82
2021/12/06 04:09:14;;;;;;;66.17;39.60;;;;;;;1.65;84.57;95535.77;1799793;80;21026;-82
2021/12/06 04:11:39;;;;;;;63.30;39.53;;;;;;;1.61;84.58;95539.55;1800226;79;21031;-82
2021/12/06 04:14:06;;;;;;;72.87;41.88;;;;;;;1.60;84.66;95546.09;1799005;80;20983;-82
2021/12/06 04:16:32;;;;;;;66.87;39.58;;;;;;;1.54;84.46;95535.98;1798048;79;20990;-82
2021/12/06 04:18:58;;;;;;;73.28;41.50;;;;;;;1.53;84.63;95537.41;1794891;79;20983;-82
2021/12/06 04:21:24;;;;;;;64.67;37.78;;;;;;;1.52;84.53;95540.92;1797088;79;21042;-82
2021/12/06 04:23:50;;;;;;;72.35;43.80;;;;;;;1.50;84.54;95542.34;1795964;79;20994;-82
2021/12/06 04:26:16;;;;;;;68.75;42.17;;;;;;;1.42;84.60;95553.77;1797621;79;20999;-82
2021/12/06 04:28:47;;;;;;;70.20;40.85;;;;;;;1.41;84.96;95572.17;1799920;80;21000;-82
2021/12/06 04:31:09;;;;;;;68.05;41.58;;;;;;;1.46;85.14;95583.25;1771166;80;20979;-82
2021/12/06 04:33:35;;;;;;;64.97;38.20;;;;;;;1.44;85.04;95587.71;1800113;80;21027;-82
2021/12/06 04:36:01;;;;;;;64.95;38.92;;;;;;;1.45;85.10;95583.72;1797347;79;21057;-82
2021/12/06 04:38:27;;;;;;;64.85;38.70;;;;;;;1.45;85.09;95586.76;1794598;79;20963;-82
2021/12/06 04:40:53;;;;;;;67.92;40.33;;;;;;;1.44;85.09;95582.59;1796008;79;22494;-82
2021/12/06 04:43:19;;;;;;;67.47;40.20;;;;;;;1.41;85.06;95581.13;1799976;79;21086;-83
2021/12/06 04:45:45;;;;;;;66.37;39.78;;;;;;;1.38;85.04;95580.63;1796570;79;21026;-82
2021/12/06 04:48:12;;;;;;;64.12;37.28;;;;;;;1.33;85.05;95581.54;1799405;80;21022;-82
2021/12/06 04:50:39;;;;;;;73.47;43.40;;;;;;;1.32;85.33;95590.17;1762052;80;20967;-83
2021/12/06 04:53:13;;;;;;;71.97;39.53;;;;;;;1.32;85.45;95592.25;1796633;79;21010;-82
2021/12/06 04:55:50;;;;;;;66.92;39.73;;;;;;;1.31;85.40;95594.95;1796395;79;21031;-82
2021/12/06 04:58:23;;;;;;;67.92;38.73;;;;;;;1.29;85.43;95605.31;1798517;80;21016;-82
2021/12/06 05:00:54;;;;;;;64.75;38.02;;;;;;;1.28;85.51;95602.90;1794443;80;21006;-82
2021/12/06 05:03:21;;;;;;;67.37;40.63;;;;;;;1.28;85.48;95598.58;1796755;80;21044;-82
2021/12/06 05:05:52;;;;;;;67.17;38.42;;;;;;;1.04;85.57;95570.18;1803760;79;21063;-82
2021/12/06 05:08:27;;;;;;;67.92;38.63;;;;;;;1.25;85.69;95602.72;1795393;79;21033;-82
2021/12/06 05:10:54;;;;;;;64.55;38.13;;;;;;;1.27;85.85;95607.21;1795488;79;21003;-82
2021/12/06 05:13:19;;;;;;;62.80;36.95;;;;;;;1.29;85.81;95608.34;1794245;79;21298;-82
2021/12/06 05:15:45;;;;;;;58.52;34.75;;;;;;;1.30;85.74;95608.23;1804435;79;21022;-83
2021/12/06 05:18:11;;;;;;;56.60;33.23;;;;;;;1.31;85.66;95608.56;1801800;79;21012;-82
2021/12/06 05:20:37;;;;;;;54.55;31.90;;;;;;;1.32;85.53;95617.84;1794933;79;21051;-82
2021/12/06 05:23:04;;;;;;;50.00;31.40;;;;;;;1.30;85.54;95624.87;1800634;79;20999;-82
2021/12/06 05:25:30;;;;;;;56.00;32.88;;;;;;;1.29;85.75;95619.39;1780227;81;21077;-82
2021/12/06 05:27:58;;;;;;;57.50;33.50;;;;;;;1.24;85.63;95619.50;1781643;80;21067;-82
2021/12/06 05:30:24;;;;;;;49.70;30.43;;;;;;;1.20;85.69;95629.22;1790275;80;20999;-82
2021/12/06 05:32:52;;;;;;;53.28;30.57;;;;;;;1.16;85.71;95634.30;1786753;80;21126;-82
2021/12/06 05:35:18;;;;;;;54.25;31.65;;;;;;;1.16;85.70;95637.66;1805367;79;20973;-82
2021/12/06 05:37:50;;;;;;;51.60;30.72;;;;;;;1.18;85.76;95645.19;1804668;79;20979;-82
2021/12/06 05:40:21;;;;;;;50.03;29.95;;;;;;;1.18;85.70;95643.44;1804538;79;20986;-82
2021/12/06 05:42:47;;;;;;;51.37;31.65;;;;;;;1.17;85.77;95639.27;1806890;79;20968;-82
2021/12/06 05:45:16;;;;;;;50.45;30.25;;;;;;;1.18;85.80;95638.80;1812176;78;21019;-83
2021/12/06 05:47:42;;;;;;;54.83;32.03;;;;;;;1.16;85.93;95635.09;1808523;79;21095;-83
2021/12/06 05:50:09;;;;;;;51.33;30.92;;;;;;;1.15;85.82;95628.84;1807766;79;21025;-82
2021/12/06 05:52:34;;;;;;;51.37;30.50;;;;;;;1.16;85.85;95633.82;1810811;79;21044;-82
2021/12/06 05:55:00;;;;;;;53.33;33.15;;;;;;;1.21;85.87;95637.22;1803743;79;20994;-82
2021/12/06 05:57:26;;;;;;;54.23;32.00;;;;;;;1.26;85.86;95635.51;1807447;79;21016;-82
2021/12/06 05:59:52;;;;;;;45.63;29.20;;;;;;;1.28;85.83;95643.38;1805900;79;20991;-82
2021/12/06 06:02:19;;;;;;;48.23;29.63;;;;;;;1.28;85.75;95645.93;1811328;79;21025;-82
2021/12/06 06:04:45;;;;;;;47.73;28.92;;;;;;;1.18;85.53;95642.16;1811461;79;21023;-82
2021/12/06 06:07:10;;;;;;;46.60;29.67;;;;;;;1.15;85.78;95645.48;1803945;79;21109;-82
2021/12/06 06:09:36;;;;;;;44.67;27.13;;;;;;;1.15;85.84;95646.76;1808012;79;21020;-82
2021/12/06 06:12:04;;;;;;;42.27;25.27;;;;;;;1.11;85.62;95652.61;1808362;78;20994;-82
2021/12/06 06:14:31;;;;;;;48.63;29.95;;;;;;;1.10;85.61;95649.72;1809200;79;20992;-82
2021/12/06 06:17:07;;;;;;;40.67;27.67;;;;;;;1.08;85.61;95643.94;1809898;79;21028;-82
2021/12/06 06:19:25;;;;;;;39.50;23.55;;;;;;;1.05;85.80;95641.67;1806292;79;20985;-82
2021/12/06 06:21:52;;;;;;;39.70;23.85;;;;;;;1.01;85.82;95647.22;1810015;79;21035;-82
2021/12/06 06:24:18;;;;;;;53.20;37.70;;;;;;;0.96;85.93;95646.34;1806256;79;21079;-82
2021/12/06 06:26:44;;;;;;;42.62;30.12;;;;;;;0.97;85.99;95655.63;1806191;79;21278;-82
2021/12/06 06:29:09;;;;;;;40.28;25.97;;;;;;;1.02;86.13;95657.78;1806329;79;20998;-82
2021/12/06 06:31:36;;;;;;;37.05;23.50;;;;;;;1.06;86.04;95666.30;1812478;79;20978;-82
2021/12/06 06:34:05;;;;;;;37.17;23.00;;;;;;;1.08;85.88;95677.67;1810210;79;21007;-82
2021/12/06 06:36:31;;;;;;;31.75;21.35;;;;;;;1.09;85.90;95687.77;1813058;79;21007;-82
2021/12/06 06:38:56;;;;;;;26.00;17.23;;;;;;;1.09;85.93;95691.60;1809739;79;20923;-82
2021/12/06 06:41:22;;;;;;;28.00;17.85;;;;;;;1.00;85.58;95692.45;1810624;79;21029;-82
2021/12/06 06:43:49;;;;;;;28.62;18.80;;;;;;;0.91;85.59;95702.23;1801943;79;21003;-82
2021/12/06 06:46:14;;;;;;;28.95;18.10;;;;;;;0.86;85.63;95702.66;1810131;79;20981;-82
2021/12/06 06:48:40;;;;;;;30.43;17.98;;;;;;;0.87;85.82;95704.74;1811587;79;20964;-82
2021/12/06 06:51:06;;;;;;;28.23;17.45;;;;;;;0.87;85.68;95709.86;1813290;79;21052;-82
2021/12/06 06:53:32;;;;;;;24.87;16.00;;;;;;;0.80;85.45;95713.42;1812499;79;21019;-81
2021/12/06 06:55:58;;;;;;;30.65;17.60;;;;;;;0.77;85.49;95709.87;1812950;79;21030;-82
2021/12/06 06:58:24;;;;;;;27.48;17.25;;;;;;;0.72;85.67;95712.03;1812178;79;20976;-82
2021/12/06 07:00:50;;;;;;;26.73;17.62;;;;;;;0.72;85.87;95720.18;1811750;78;21086;-82
2021/12/06 07:03:16;;;;;;;25.00;15.60;;;;;;;0.72;85.90;95721.46;1808383;77;21087;-82
2021/12/06 07:05:42;;;;;;;25.77;16.35;;;;;;;0.72;85.91;95722.73;1810640;79;21003;-82
2021/12/06 07:08:08;;;;;;;25.30;15.00;;;;;;;0.67;85.71;95720.60;1812560;79;21089;-82
2021/12/06 07:10:34;;;;;;;22.90;15.15;;;;;;;0.65;85.63;95733.16;1810521;79;21102;-82
2021/12/06 07:13:04;;;;;;;25.15;16.67;;;;;;;0.68;85.95;95729.08;1808277;79;21122;-82
2021/12/06 07:15:30;;;;;;;27.42;17.62;;;;;;;0.67;85.81;95732.58;1808215;79;20961;-82
2021/12/06 07:17:56;;;;;;;22.85;15.55;;;;;;;0.69;85.95;95738.36;1812947;79;21005;-82
2021/12/06 07:20:23;;;;;;;25.65;16.12;;;;;;;0.67;85.79;95744.89;1808560;79;21030;-82
2021/12/06 07:22:52;;;;;;;29.55;19.62;;;;;;;0.69;85.93;95743.47;1803010;79;20988;-82
2021/12/06 07:25:19;;;;;;;29.07;19.37;;;;;;;0.71;85.99;95741.11;1806527;79;21044;-82
2021/12/06 07:27:46;;;;;;;28.60;18.25;;;;;;;0.70;86.01;95745.89;1811338;79;21055;-82
2021/12/06 07:30:12;;;;;;;27.95;18.62;;;;;;;0.66;86.06;95748.86;1802835;79;21075;-82
2021/12/06 07:32:37;;;;;;;25.40;17.67;;;;;;;0.63;86.01;95753.75;1812755;78;20972;-82
2021/12/06 07:35:04;;;;;;;25.00;16.55;;;;;;;0.64;85.88;95752.81;1821546;78;20956;-82
2021/12/06 07:37:30;;;;;;;25.23;16.20;;;;;;;0.61;85.66;95751.81;1821330;78;21019;-82
2021/12/06 07:39:56;;;;;;;24.85;17.62;;;;;;;0.62;85.72;95755.98;1817065;78;21011;-82
2021/12/06 07:42:21;;;;;;;26.05;18.70;;;;;;;0.64;85.95;95757.11;1815716;79;20967;-82
2021/12/06 07:44:48;;;;;;;27.70;18.70;;;;;;;0.68;86.08;95757.20;1817279;79;20983;-82
2021/12/06 07:47:14;;;;;;;31.82;19.15;;;;;;;0.66;86.03;95750.95;1810310;79;21011;-82
2021/12/06 07:49:43;;;;;;;24.57;18.30;;;;;;;0.70;86.06;95751.48;1812139;78;21354;-82
2021/12/06 07:52:08;;;;;;;25.97;17.65;;;;;;;0.73;85.86;95756.31;1820154;79;20991;-82
2021/12/06 07:54:35;;;;;;;28.85;17.90;;;;;;;0.75;85.81;95750.59;1820282;79;20999;-82
2021/12/06 07:57:00;;;;;;;26.05;17.52;;;;;;;0.74;85.77;95747.70;1817657;78;21095;-82
2021/12/06 07:59:26;;;;;;;26.12;16.97;;;;;;;0.73;85.79;95744.80;1814993;79;20979;-82
2021/12/06 08:01:53;;;;;;;23.02;15.93;;;;;;;0.72;85.94;95740.64;1817850;78;21055;-82
2021/12/06 08:04:19;;;;;;;22.13;15.63;;;;;;;0.71;85.68;95745.42;1820950;78;21031;-82
2021/12/06 08:06:45;;;;;;;21.60;16.27;;;;;;;0.71;85.48;95744.14;1818222;79;21026;-82
2021/12/06 08:09:11;;;;;;;24.50;16.55;;;;;;;0.71;85.44;95747.50;1818820;79;21024;-82
2021/12/06 08:11:37;;;;;;;23.52;17.62;;;;;;;0.74;85.63;95748.50;1816904;79;21018;-82
2021/12/06 08:14:03;;;;;;;26.93;19.42;;;;;;;0.79;85.85;95745.05;1817527;79;20944;-82
2021/12/06 08:16:34;;;;;;;27.22;17.60;;;;;;;0.84;85.94;95744.66;1819088;79;20987;-82
2021/12/06 08:18:59;;;;;;;29.10;18.57;;;;;;;0.88;85.81;95744.72;1812035;78;21046;-82
2021/12/06 08:21:26;;;;;;;27.10;19.35;;;;;;;0.94;85.66;95751.02;1811705;78;20940;-83
2021/12/06 08:23:53;;;;;;;28.42;19.73;;;;;;;1.00;85.62;95755.13;1812823;79;21032;-83
2021/12/06 08:26:21;;;;;;;27.00;19.15;;;;;;;1.06;85.49;95759.69;1814300;78;21095;-82
2021/12/06 08:28:48;;;;;;;29.32;19.00;;;;;;;1.02;85.25;95750.69;1813952;78;21469;-82
2021/12/06 08:31:14;;;;;;;27.90;18.42;;;;;;;1.03;85.37;95755.33;1810438;78;20992;-82
2021/12/06 08:33:40;;;;;;;31.23;19.75;;;;;;;1.00;84.99;95752.58;1818621;79;21000;-82
2021/12/06 08:36:08;;;;;;;26.25;18.25;;;;;;;1.00;85.06;95762.81;1810161;79;20992;-82
2021/12/06 08:38:35;;;;;;;29.02;20.05;;;;;;;0.99;84.84;95765.51;1816881;79;21059;-82
2021/12/06 08:41:05;;;;;;;26.68;19.35;;;;;;;0.97;84.61;95769.93;1814682;78;20999;-82
2021/12/06 08:43:31;;;;;;;24.87;19.20;;;;;;;0.97;84.79;95770.73;1816246;79;21088;-82
2021/12/06 08:46:01;;;;;;;31.68;21.42;;;;;;;0.97;84.94;95779.69;1813711;78;20957;-83
2021/12/06 08:48:30;;;;;;;30.92;20.45;;;;;;;0.99;85.20;95777.02;1819840;78;21007;-83
2021/12/06 08:50:58;;;;;;;30.92;21.25;;;;;;;1.06;85.19;95776.32;1815084;79;21048;-82
2021/12/06 08:53:24;;;;;;;31.82;21.12;;;;;;;1.12;85.07;95785.99;1811839;79;21042;-83
2021/12/06 08:55:51;;;;;;;30.57;22.45;;;;;;;1.15;84.88;95780.63;1818885;79;21071;-83
2021/12/06 08:58:16;;;;;;;34.38;23.40;;;;;;;1.14;84.73;95781.57;1813998;79;21024;-82
2021/12/06 09:00:42;;;;;;;35.20;22.30;;;;;;;1.14;84.80;95779.48;1814468;79;21383;-82
2021/12/06 09:03:08;;;;;;;31.75;22.32;;;;;;;1.12;84.88;95785.99;1820394;79;21053;-82
2021/12/06 09:05:40;;;;;;;34.18;21.90;;;;;;;1.12;84.85;95794.14;1791381;79;20964;-83
2021/12/06 09:08:06;;;;;;;32.58;21.48;;;;;;;1.13;84.72;95790.16;1818654;79;21027;-82
2021/12/06 09:10:32;;;;;;;32.45;22.30;;;;;;;1.17;84.64;95792.00;1814060;78;21042;-83
2021/12/06 09:12:58;;;;;;;32.20;22.50;;;;;;;1.19;84.57;95793.47;1819432;79;20988;-83
2021/12/06 09:15:24;;;;;;;34.10;23.75;;;;;;;1.22;84.57;95789.82;1814538;79;20976;-82
2021/12/06 09:17:51;;;;;;;35.28;24.37;;;;;;;1.22;84.63;95791.57;1817986;78;21003;-82
2021/12/06 09:20:19;;;;;;;34.20;24.00;;;;;;;1.17;84.26;95789.44;1793802;79;20921;-82
2021/12/06 09:22:45;;;;;;;32.58;25.10;;;;;;;1.15;84.44;95794.70;1819500;79;21027;-82
2021/12/06 09:25:11;;;;;;;34.30;25.20;;;;;;;1.20;84.49;95796.83;1782528;79;20976;-82
2021/12/06 09:27:37;;;;;;;34.73;24.25;;;;;;;1.20;84.32;95800.67;1816594;78;21003;-82
2021/12/06 09:30:04;;;;;;;36.88;25.88;;;;;;;1.16;84.30;95802.70;1789963;78;21068;-82
2021/12/06 09:32:30;;;;;;;37.23;24.67;;;;;;;1.14;84.27;95807.16;1806467;78;21516;-82
2021/12/06 09:34:58;;;;;;;35.35;24.75;;;;;;;0.92;84.44;95772.91;1813242;78;20995;-82
2021/12/06 09:37:24;;;;;;;35.23;23.83;;;;;;;1.07;84.29;95803.98;1815726;79;20977;-82
2021/12/06 09:39:50;;;;;;;35.05;25.00;;;;;;;1.07;84.29;95804.80;1815663;78;21390;-82
2021/12/06 09:42:18;;;;;;;33.42;24.20;;;;;;;1.11;84.45;95801.02;1818691;79;20956;-82
2021/12/06 09:44:44;;;;;;;37.75;25.48;;;;;;;1.16;84.60;95800.63;1816414;78;20960;-82
2021/12/06 09:47:09;;;;;;;37.38;26.70;;;;;;;1.20;84.65;95800.67;1813287;79;21004;-82
2021/12/06 09:49:35;;;;;;;42.13;28.45;;;;;;;1.19;84.53;95802.90;1815857;79;21074;-82
2021/12/06 09:52:05;;;;;;;40.67;29.87;;;;;;;1.16;84.54;95801.42;1813752;79;20987;-82
2021/12/06 09:54:35;;;;;;;46.10;33.98;;;;;;;1.18;84.55;95805.12;1815119;78;21028;-82
2021/12/06 09:57:03;;;;;;;39.88;31.02;;;;;;;1.20;84.35;95804.03;1810174;79;21060;-83
2021/12/06 09:59:29;;;;;;;44.33;31.02;;;;;;;1.17;84.23;95808.16;1817301;79;20995;-83
2021/12/06 10:02:09;;;;;;;38.05;26.52;;;;;;;1.15;84.27;95812.61;1811798;78;21027;-83
2021/12/06 10:04:39;;;;;;;43.23;30.68;;;;;;;1.11;84.28;95799.73;1818759;79;20953;-83
2021/12/06 10:07:09;;;;;;;42.10;28.95;;;;;;;1.11;84.57;95809.16;1817919;78;21038;-83
2021/12/06 10:09:34;;;;;;;49.58;31.30;;;;;;;1.12;84.48;95811.58;1815982;79;20960;-83
2021/12/06 10:12:01;;;;;;;40.12;27.00;;;;;;;1.13;84.43;95817.03;1816290;79;21393;-83
2021/12/06 10:14:27;;;;;;;43.65;29.40;;;;;;;1.13;84.40;95805.98;1812349;78;21023;-83
2021/12/06 10:16:53;;;;;;;46.08;29.15;;;;;;;1.11;84.45;95806.60;1812819;79;21039;-83
2021/12/06 10:19:20;;;;;;;43.00;28.67;;;;;;;1.10;84.54;95796.84;1789843;79;20976;-83
2021/12/06 10:21:46;;;;;;;44.75;26.48;;;;;;;1.10;84.57;95792.20;1814833;79;21330;-83
2021/12/06 10:24:18;;;;;;;60.50;38.63;;;;;;;1.07;84.41;95795.03;1814019;79;21142;-83
2021/12/06 10:26:44;;;;;;;47.83;30.20;;;;;;;1.08;84.41;95793.62;1815227;78;21528;-83
2021/12/06 10:29:22;;;;;;;43.70;29.57;;;;;;;1.10;84.38;95791.72;1817802;79;21095;-83
2021/12/06 10:31:52;;;;;;;50.15;31.62;;;;;;;1.09;84.38;95790.59;1816463;79;21421;-83
2021/12/06 10:34:24;;;;;;;41.90;28.83;;;;;;;1.11;84.53;95793.80;1808921;79;20996;-83
2021/12/06 10:36:50;;;;;;;34.03;23.92;;;;;;;1.10;84.52;95803.70;1815012;79;21055;-83
2021/12/06 10:39:16;;;;;;;44.95;30.02;;;;;;;1.08;84.59;95803.84;1815216;79;21403;-83
2021/12/06 10:41:41;;;;;;;46.95;30.55;;;;;;;1.10;84.60;95793.00;1812448;79;21072;-83
2021/12/06 10:44:12;;;;;;;47.73;31.82;;;;;;;1.17;84.50;95795.83;1816471;78;21026;-83
2021/12/06 10:46:46;;;;;;;45.67;31.45;;;;;;;1.18;84.46;95801.28;1814738;78;20976;-83
2021/12/06 10:49:17;;;;;;;44.13;30.77;;;;;;;1.15;84.33;95799.01;1817486;79;21071;-82
2021/12/06 10:51:43;;;;;;;48.98;31.97;;;;;;;1.13;84.46;95801.67;1819485;79;21043;-82
2021/12/06 10:54:19;;;;;;;46.20;29.90;;;;;;;1.15;84.53;95803.66;1817127;79;21446;-82
2021/12/06 10:56:44;;;;;;;47.05;30.97;;;;;;;1.16;84.49;95801.42;1815096;78;20969;-82
2021/12/06 10:59:22;;;;;;;40.92;28.05;;;;;;;1.17;84.28;95803.04;1816563;79;21405;-82
2021/12/06 11:01:53;;;;;;;40.23;26.68;;;;;;;1.16;84.13;95808.30;1817483;79;21018;-83
2021/12/06 11:04:22;;;;;;;37.50;25.65;;;;;;;1.15;84.40;95806.21;1819713;79;21075;-82
2021/12/06 11:06:51;;;;;;;36.10;25.88;;;;;;;1.12;84.18;95809.02;1809361;78;21003;-82
2021/12/06 11:09:21;;;;;;;37.60;26.55;;;;;;;1.14;84.40;95808.44;1811760;79;21557;-82
2021/12/06 11:11:50;;;;;;;38.90;26.87;;;;;;;1.15;84.23;95806.21;1818270;79;21330;-82
2021/12/06 11:14:23;;;;;;;40.95;26.70;;;;;;;1.17;84.25;95806.88;1813250;78;21074;-83
2021/12/06 11:17:01;;;;;;;38.30;27.27;;;;;;;1.15;83.93;95812.61;1813712;78;21377;-83
2021/12/06 11:19:29;;;;;;;40.30;28.02;;;;;;;1.13;84.18;95813.19;1817216;79;21004;-82
2021/12/06 11:22:10;;;;;;;43.38;29.32;;;;;;;1.16;84.34;95813.41;1819100;78;21097;-83
2021/12/06 11:24:43;;;;;;;42.58;29.50;;;;;;;1.14;84.31;95810.19;1812027;78;20972;-82
2021/12/06 11:27:24;;;;;;;40.95;28.42;;;;;;;1.11;84.12;95821.48;1815066;78;21019;-83
2021/12/06 11:30:05;;;;;;;37.40;26.20;;;;;;;1.07;83.88;95821.42;1816915;79;21051;-83
2021/12/06 11:32:38;;;;;;;35.07;24.43;;;;;;;1.00;83.79;95821.65;1811489;79;21007;-83
2021/12/06 11:35:17;;;;;;;35.52;24.00;;;;;;;0.90;83.62;95822.12;1818425;79;20987;-83
2021/12/06 11:37:46;;;;;;;36.30;26.55;;;;;;;0.82;83.98;95825.84;1814749;79;21015;-83